EGAAEGGP

Guest
Details From EGAA - Belfast Aldergrove
To EGGP - Liverpool
Flight Number -
Tags generated
Created
Modified
Stats Distance 143 nm / 265 km
Max Altitude 17,100 ft / 5,212 m
Waypoints 4
Social Downloads 0
Likes 0
Share

Download

Looking for another format? Having issues loading an existing format? Contact us
Advertisement - Login to hide

Notes

Basic altitude profile: - Ascent Rate: 2000ft/min - Ascent Speed: 250kts - Cruise Altitude: 30000ft - Cruise Speed: 340kts - Descent Rate: 2000ft/min - Descent Speed: 250kts Options: - Use NATs: yes - Use PACOTS: yes - Use low airways: yes - Use high airways: yes

Route

EGAA RINGA L10 SLYDA EGGP

ID Type Via Altitude (ft/m) Position (lat/lon) Dist (leg/tot) Name
O EGAA APT - 0 / 0 54.65388 / -6.22001 - / 0 nm Belfast Aldergrove
RINGA FIX - 9,700 / 2,957 54.39833 / -5.57111 27 / 27 nm
SLYDA FIX L10 (AWY-LO) 17,100 / 5,212 54.20111 / -5.08750 20 / 48 nm
O EGGP APT - 0 / 0 53.33363 / -2.84977 94 / 142 nm Liverpool

Altitude Profile

Advertisement - Login to hide

EGAA

Details ICAO EGAA (BFS)
Name Belfast International
Region United Kingdom
Timezone Europe/London (UTC+1.0)
Stats Elevation 268 ft / 82 m (AMSL)
Location 54.653900° -6.219940°
Runways 2
Magnetic Variation 2.825° W

METAR

EGAA 271350Z 14006KT 070V180 9999 FEW036 17/09 Q1037

Decode

TAF

TAF EGAA 271100Z 2712/2812 13005KT 9999 SCT030= TAF EGPD 271057Z 2712/2812 34010KT 9999 SCT030 BECMG 2712/2714 13009KT PROB30 TEMPO 2720/2802 7000 -RA PROB40 TEMPO 2802/2806 4000 BR RADZ BKN012 PROB30 TEMPO 2809/2812 30010KT

Decode

Departure Runways

ID Width Length Bearing (true/mag) Surface Threshold Overrun Markings Lighting
07 147 ft / 45 m 9,124 ft / 2,781 m 65.01° / 67.84° ASPHALT 0 ft / 0 m 0 ft / 0 m APP CENTERLINE EDGE THRESHOLD CALVERT
17 148 ft / 45 m 5,909 ft / 1,801 m 161.99° / 164.82° ASPHALT 525 ft / 160 m 0 ft / 0 m PREC-APP EDGE THRESHOLD CALVERT
25 147 ft / 45 m 9,124 ft / 2,781 m 245.05° / 247.87° ASPHALT 0 ft / 0 m 0 ft / 0 m PREC-APP CENTERLINE EDGE THRESHOLD CALVERT TDZ
35 148 ft / 45 m 5,909 ft / 1,801 m 342.00° / 344.82° ASPHALT 502 ft / 153 m 0 ft / 0 m APP EDGE THRESHOLD MALS

EGGP

Details ICAO EGGP (LPL)
Name Liverpool John Lennon
Region United Kingdom
Timezone Europe/London (UTC+1.0)
Stats Elevation 81 ft / 25 m (AMSL)
Location 53.333600° -2.849780°
Runways 1
Magnetic Variation 1.287° W

METAR

EGGP 271350Z 34009KT 300V030 9999 FEW034 21/07 Q1036

Decode

TAF

TAF EGGP 271103Z 2712/2812 30010KT CAVOK BECMG 2720/2723 VRB03KT PROB30 2803/2806 8000

Decode

Destination Runways

ID Width Length Bearing (true/mag) Surface Threshold Overrun Markings Lighting
09 148 ft / 45 m 7,478 ft / 2,279 m 85.58° / 86.87° ASPHALT 194 ft / 59 m 0 ft / 0 m UK-PREC-APP CENTERLINE EDGE THRESHOLD CALVERT
27 148 ft / 45 m 7,478 ft / 2,279 m 265.61° / 266.89° ASPHALT 0 ft / 0 m 82 ft / 25 m UK-PREC-APP CENTERLINE EDGE THRESHOLD CALVERT TDZ

Approach Navaids

Runway Type Ident Frequency Range Bearing (true/mag) Slope Elevation
09 DME ILVR 111.75 MHz 18 nm / 33 km - - 88 ft / 27 m (AMSL)
09 GS ILVR 111.75 MHz 10 nm / 19 km 86.20° / 87.49 ° 3.00° 80 ft / 24 m (AMSL)
09 LOC-ILS ILVR 111.75 MHz 18 nm / 33 km 85.61° / 86.90 ° - 77 ft / 23 m (AMSL)
27 LOC-ILS ILQ 111.75 MHz 18 nm / 33 km 265.05° / 266.34 ° - 55 ft / 17 m (AMSL)
27 DME ILQ 111.75 MHz 18 nm / 33 km - - 88 ft / 27 m (AMSL)
27 GS ILQ 111.75 MHz 10 nm / 19 km 266.20° / 267.49 ° 3.00° 80 ft / 24 m (AMSL)

Popular Alternatives